createdAt,value
2023-05-05T00:01:46.819Z,13.90
2023-05-05T00:04:14.905Z,13.86
2023-05-05T00:06:42.379Z,13.79
2023-05-05T00:09:09.860Z,13.72
2023-05-05T00:11:38.054Z,13.69
2023-05-05T00:14:05.700Z,13.67
2023-05-05T00:16:33.261Z,13.65
2023-05-05T00:19:01.330Z,13.62
2023-05-05T00:21:28.963Z,13.59
2023-05-05T00:23:56.465Z,13.40
2023-05-05T00:26:24.277Z,13.36
2023-05-05T00:28:52.534Z,13.36
2023-05-05T00:31:20.144Z,13.37
2023-05-05T00:33:47.921Z,13.32
2023-05-05T00:36:15.399Z,13.24
2023-05-05T00:38:43.100Z,13.10
2023-05-05T00:41:11.138Z,13.02
2023-05-05T00:43:38.614Z,12.73
2023-05-05T00:46:19.218Z,13.00
2023-05-05T00:48:47.454Z,12.88
2023-05-05T00:51:16.992Z,12.69
2023-05-05T00:53:45.301Z,12.58
2023-05-05T00:56:14.449Z,12.66
2023-05-05T00:58:43.406Z,12.66
2023-05-05T01:01:15.528Z,12.71
2023-05-05T01:03:43.527Z,12.68
2023-05-05T01:06:48.112Z,12.65
2023-05-05T01:09:37.697Z,12.61
2023-05-05T01:12:11.246Z,12.55
2023-05-05T01:14:40.898Z,12.49
2023-05-05T01:17:17.803Z,12.37
2023-05-05T01:20:04.819Z,12.24
2023-05-05T01:22:39.452Z,12.23
2023-05-05T01:25:26.045Z,12.05
2023-05-05T01:28:11.755Z,12.16
2023-05-05T01:31:17.265Z,11.86
2023-05-05T01:33:49.576Z,12.00
2023-05-05T01:36:28.668Z,11.98
2023-05-05T01:38:59.254Z,11.97
2023-05-05T01:41:32.115Z,11.96
2023-05-05T01:44:03.356Z,11.97
2023-05-05T01:46:34.717Z,11.85
2023-05-05T01:49:02.788Z,11.84
2023-05-05T01:51:33.018Z,11.84
2023-05-05T01:54:04.492Z,11.82
2023-05-05T01:56:33.227Z,11.71
2023-05-05T01:59:07.244Z,11.31
2023-05-05T02:01:39.383Z,11.46
2023-05-05T02:04:09.905Z,11.53
2023-05-05T02:06:39.412Z,11.52
2023-05-05T02:09:11.768Z,11.54
2023-05-05T02:11:40.271Z,11.54
2023-05-05T02:14:10.033Z,11.59
2023-05-05T02:16:38.702Z,11.63
2023-05-05T02:19:07.263Z,11.59
2023-05-05T02:21:34.983Z,11.43
2023-05-05T02:24:03.694Z,11.33
2023-05-05T02:26:34.957Z,11.36
2023-05-05T02:29:08.248Z,11.34
2023-05-05T02:31:41.965Z,11.15
2023-05-05T02:34:13.530Z,11.37
2023-05-05T02:36:42.985Z,11.33
2023-05-05T02:39:25.032Z,11.34
2023-05-05T02:41:55.247Z,11.35
2023-05-05T02:44:26.229Z,11.26
2023-05-05T02:46:54.944Z,11.29
2023-05-05T02:49:23.975Z,11.03
2023-05-05T02:51:54.181Z,11.34
2023-05-05T02:54:22.350Z,11.31
2023-05-05T02:56:51.576Z,11.33
2023-05-05T02:59:36.633Z,11.36
2023-05-05T03:02:11.597Z,11.42
2023-05-05T03:04:42.492Z,11.38
2023-05-05T03:07:15.908Z,11.39
2023-05-05T03:09:51.943Z,11.03
2023-05-05T03:12:22.428Z,11.37
2023-05-05T03:14:54.206Z,11.39
2023-05-05T03:17:24.599Z,11.36
2023-05-05T03:19:52.728Z,11.13
2023-05-05T03:22:20.461Z,10.87
2023-05-05T03:24:51.814Z,11.04
2023-05-05T03:27:20.716Z,11.10
2023-05-05T03:29:48.552Z,11.06
2023-05-05T03:32:16.448Z,10.93
2023-05-05T03:34:44.614Z,10.84
2023-05-05T03:37:12.341Z,10.91
2023-05-05T03:39:40.238Z,10.92
2023-05-05T03:42:08.504Z,10.75
2023-05-05T03:44:36.603Z,10.40
2023-05-05T03:47:04.278Z,10.78
2023-05-05T03:49:32.581Z,10.74
2023-05-05T03:52:01.077Z,10.75
2023-05-05T03:54:29.303Z,10.80
2023-05-05T03:56:56.911Z,10.86
2023-05-05T03:59:24.810Z,10.61
2023-05-05T04:01:52.946Z,10.98
2023-05-05T04:04:21.480Z,11.16
2023-05-05T04:06:49.029Z,11.18
2023-05-05T04:09:16.519Z,11.23
2023-05-05T04:11:44.583Z,10.98
2023-05-05T04:14:12.274Z,11.33
2023-05-05T04:16:40.074Z,11.48
2023-05-05T04:19:08.696Z,11.46
2023-05-05T04:21:36.372Z,11.55
2023-05-05T04:24:04.665Z,11.47
2023-05-05T04:26:32.594Z,11.60
2023-05-05T04:29:00.645Z,11.69
2023-05-05T04:31:28.261Z,11.72
2023-05-05T04:33:56.296Z,11.72
2023-05-05T04:36:23.820Z,11.85
2023-05-05T04:38:51.472Z,11.70
2023-05-05T04:41:19.331Z,11.90
2023-05-05T04:43:47.068Z,11.70
2023-05-05T04:46:15.347Z,11.65
2023-05-05T04:48:43.493Z,11.69
2023-05-05T04:51:11.101Z,11.54
2023-05-05T04:53:38.905Z,11.91
2023-05-05T04:56:06.853Z,12.06
2023-05-05T04:58:34.372Z,12.10
2023-05-05T05:01:01.808Z,12.21
2023-05-05T05:03:32.131Z,12.43
2023-05-05T05:05:59.926Z,12.55
2023-05-05T05:08:27.445Z,12.69
2023-05-05T05:10:55.228Z,12.84
2023-05-05T05:13:23.198Z,12.97
2023-05-05T05:15:51.582Z,12.58
2023-05-05T05:18:19.537Z,12.94
2023-05-05T05:20:47.582Z,13.17
2023-05-05T05:23:15.887Z,13.45
2023-05-05T05:25:44.078Z,13.58
2023-05-05T05:28:12.046Z,13.83
2023-05-05T05:30:40.038Z,13.93
2023-05-05T05:33:08.816Z,14.10
2023-05-05T05:35:37.037Z,14.29
2023-05-05T05:38:04.770Z,14.39
2023-05-05T05:40:32.602Z,14.21
2023-05-05T05:43:00.428Z,14.60
2023-05-05T05:45:28.202Z,14.53
2023-05-05T05:47:56.931Z,14.51
2023-05-05T05:50:27.360Z,14.77
2023-05-05T05:52:55.897Z,14.74
2023-05-05T05:55:24.232Z,15.14
2023-05-05T05:57:53.278Z,15.28
2023-05-05T06:00:21.458Z,15.18
2023-05-05T06:02:51.378Z,14.96
2023-05-05T06:05:19.654Z,15.49
2023-05-05T06:07:47.898Z,15.53
2023-05-05T06:10:27.277Z,15.45
2023-05-05T06:12:56.383Z,15.44
2023-05-05T06:15:25.625Z,15.83
2023-05-05T06:17:53.660Z,16.01
2023-05-05T06:20:22.389Z,16.20
2023-05-05T06:25:18.065Z,16.24
2023-05-05T06:27:46.051Z,16.37
2023-05-05T06:30:14.836Z,16.67
2023-05-05T06:32:42.428Z,16.71
2023-05-05T06:35:10.154Z,17.05
2023-05-05T06:37:38.121Z,17.00
2023-05-05T06:40:06.969Z,17.25
2023-05-05T06:42:34.802Z,17.02
2023-05-05T06:45:04.857Z,17.38
2023-05-05T06:47:32.390Z,17.61
2023-05-05T06:49:59.909Z,17.81
2023-05-05T06:52:27.673Z,17.99
2023-05-05T06:54:55.187Z,17.87
2023-05-05T06:57:22.635Z,18.14
2023-05-05T06:59:50.419Z,18.16
2023-05-05T07:02:18.692Z,17.83
2023-05-05T07:04:47.528Z,18.23
2023-05-05T07:07:15.422Z,18.21
2023-05-05T07:09:45.006Z,17.53
2023-05-05T07:12:12.477Z,17.41
2023-05-05T07:14:40.909Z,17.40
2023-05-05T07:17:08.442Z,17.84
2023-05-05T07:19:36.138Z,18.22
2023-05-05T07:22:04.098Z,18.38
2023-05-05T07:24:31.587Z,18.43
2023-05-05T07:26:59.325Z,19.01
2023-05-05T07:29:27.177Z,18.26
2023-05-05T07:31:54.753Z,18.00
2023-05-05T07:34:22.291Z,18.97
2023-05-05T07:36:50.235Z,19.29
2023-05-05T07:39:19.460Z,19.23
2023-05-05T07:41:47.003Z,19.49
2023-05-05T07:44:14.966Z,19.87
2023-05-05T07:46:42.447Z,20.05
2023-05-05T07:49:10.010Z,19.93
2023-05-05T07:51:37.921Z,19.68
2023-05-05T07:54:05.780Z,19.80
2023-05-05T07:56:33.632Z,20.03
2023-05-05T07:59:01.537Z,19.96
2023-05-05T08:01:29.125Z,19.76
2023-05-05T08:03:57.023Z,18.99
2023-05-05T08:06:25.271Z,19.04
2023-05-05T08:08:53.512Z,19.09
2023-05-05T08:11:22.154Z,19.30
2023-05-05T08:13:49.559Z,19.51
2023-05-05T08:16:17.194Z,20.24
2023-05-05T08:18:45.568Z,20.32
2023-05-05T08:21:13.394Z,20.18
2023-05-05T08:23:40.875Z,20.04
2023-05-05T08:26:09.510Z,20.37
2023-05-05T08:28:37.417Z,20.33
2023-05-05T08:31:06.769Z,21.30
2023-05-05T08:33:34.548Z,21.44
2023-05-05T08:36:02.163Z,22.16
2023-05-05T08:38:29.611Z,21.18
2023-05-05T08:40:57.387Z,21.50
2023-05-05T08:43:25.123Z,21.97
2023-05-05T08:45:54.235Z,22.28
2023-05-05T08:48:24.472Z,21.25
2023-05-05T08:50:59.917Z,21.50
2023-05-05T08:53:56.472Z,21.56
2023-05-05T08:56:27.595Z,21.42
2023-05-05T08:58:57.059Z,20.73
2023-05-05T09:01:24.880Z,20.29
2023-05-05T09:03:53.243Z,20.71
2023-05-05T09:06:22.428Z,20.92
2023-05-05T09:08:50.570Z,20.68
2023-05-05T09:11:18.060Z,21.46
2023-05-05T09:13:47.595Z,21.71
2023-05-05T09:16:15.151Z,21.22
2023-05-05T09:18:43.121Z,21.08
2023-05-05T09:21:21.945Z,21.93
2023-05-05T09:24:09.061Z,22.46
2023-05-05T09:26:47.768Z,22.57
2023-05-05T09:29:22.132Z,22.34
2023-05-05T09:32:08.558Z,22.00
2023-05-05T09:34:37.352Z,22.30
2023-05-05T09:37:06.205Z,22.84
2023-05-05T09:39:33.944Z,23.13
2023-05-05T09:42:03.224Z,23.68
2023-05-05T09:44:36.615Z,24.29
2023-05-05T09:47:09.409Z,24.57
2023-05-05T09:49:38.533Z,25.02
2023-05-05T09:52:14.958Z,25.02
2023-05-05T09:54:44.325Z,25.16
2023-05-05T09:57:31.868Z,25.09
2023-05-05T10:00:02.160Z,24.36
2023-05-05T10:02:35.536Z,24.04
2023-05-05T10:05:12.909Z,24.43
2023-05-05T10:07:42.506Z,22.96
2023-05-05T10:10:16.951Z,23.16
2023-05-05T10:12:47.663Z,22.87
2023-05-05T10:15:16.346Z,24.10
2023-05-05T10:18:05.134Z,23.86
2023-05-05T10:20:38.726Z,23.74
2023-05-05T10:23:08.397Z,23.30
2023-05-05T10:25:49.896Z,22.90
2023-05-05T10:28:28.622Z,22.62
2023-05-05T10:30:59.239Z,23.74
2023-05-05T10:33:35.332Z,24.09
2023-05-05T10:36:06.162Z,24.06
2023-05-05T10:38:34.387Z,24.90
2023-05-05T10:41:03.174Z,24.21
2023-05-05T10:43:32.041Z,24.78
2023-05-05T10:46:00.706Z,24.67
2023-05-05T10:48:42.540Z,25.40
2023-05-05T10:51:40.476Z,25.18
2023-05-05T10:54:28.263Z,24.67
2023-05-05T10:56:58.021Z,24.93
2023-05-05T10:59:37.977Z,25.11
2023-05-05T11:02:42.051Z,24.83
2023-05-05T11:05:18.284Z,24.34
2023-05-05T11:07:51.537Z,22.71
2023-05-05T11:10:20.797Z,22.64
2023-05-05T11:12:52.193Z,22.70
2023-05-05T11:15:31.820Z,22.82
2023-05-05T11:18:06.648Z,22.61
2023-05-05T11:20:37.194Z,23.52
2023-05-05T11:23:05.279Z,23.66
2023-05-05T11:25:43.313Z,23.97
2023-05-05T11:28:12.600Z,24.93
2023-05-05T11:30:55.110Z,25.71
2023-05-05T11:33:37.790Z,26.46
2023-05-05T11:36:09.131Z,26.71
2023-05-05T11:38:55.724Z,26.65
2023-05-05T11:41:26.266Z,26.72
2023-05-05T11:44:16.997Z,27.06
2023-05-05T11:46:53.275Z,26.39
2023-05-05T11:49:27.225Z,26.71
2023-05-05T11:51:59.302Z,27.15
2023-05-05T11:54:27.897Z,27.36
2023-05-05T11:57:02.056Z,28.03
2023-05-05T11:59:29.914Z,28.08
2023-05-05T12:01:58.232Z,27.36
2023-05-05T12:04:26.435Z,26.41
2023-05-05T12:06:55.400Z,26.17
2023-05-05T12:09:23.398Z,25.82
2023-05-05T12:11:55.932Z,25.57
2023-05-05T12:14:25.187Z,25.19
2023-05-05T12:17:02.714Z,25.07
2023-05-05T12:19:33.257Z,23.76
2023-05-05T12:22:02.355Z,24.04
2023-05-05T12:24:30.534Z,24.42
2023-05-05T12:27:11.650Z,24.36
2023-05-05T12:29:39.492Z,24.08
2023-05-05T12:32:07.181Z,23.77
2023-05-05T12:34:34.897Z,22.95
2023-05-05T12:37:03.411Z,23.01
2023-05-05T12:39:37.322Z,23.38
2023-05-05T12:42:05.428Z,23.57
2023-05-05T12:44:39.911Z,23.73
2023-05-05T12:47:07.917Z,23.72
2023-05-05T12:49:52.015Z,23.75
2023-05-05T12:52:20.906Z,24.31
2023-05-05T12:55:06.931Z,24.74
2023-05-05T12:57:34.861Z,24.52
2023-05-05T13:00:14.360Z,24.98
2023-05-05T13:02:42.417Z,25.65
2023-05-05T13:05:10.874Z,26.14
2023-05-05T13:07:51.383Z,26.49
2023-05-05T13:10:19.295Z,26.67
2023-05-05T13:12:47.599Z,26.91
2023-05-05T13:15:15.096Z,26.70
2023-05-05T13:17:43.053Z,26.35
2023-05-05T13:20:11.302Z,26.88
2023-05-05T13:22:38.899Z,27.04
2023-05-05T13:25:07.397Z,27.24
2023-05-05T13:27:35.398Z,27.31
2023-05-05T13:30:03.050Z,26.69
2023-05-05T13:32:31.283Z,26.24
2023-05-05T13:34:58.740Z,25.82
2023-05-05T13:37:26.648Z,25.29
2023-05-05T13:39:59.273Z,25.17
2023-05-05T13:42:26.932Z,24.81
2023-05-05T13:44:54.850Z,24.73
2023-05-05T13:47:22.802Z,24.55
2023-05-05T13:49:50.644Z,24.41
2023-05-05T13:52:18.577Z,24.24
2023-05-05T13:54:46.273Z,24.25
2023-05-05T13:57:13.934Z,24.09
2023-05-05T13:59:41.815Z,24.12
2023-05-05T14:02:09.592Z,24.13
2023-05-05T14:04:37.511Z,24.08
2023-05-05T14:07:04.968Z,23.91
2023-05-05T14:09:33.041Z,23.79
2023-05-05T14:12:01.872Z,23.75
2023-05-05T14:14:29.627Z,23.96
2023-05-05T14:16:57.140Z,24.04
2023-05-05T14:19:24.969Z,24.46
2023-05-05T14:21:52.376Z,25.38
2023-05-05T14:24:20.191Z,25.89
2023-05-05T14:26:47.947Z,26.20
2023-05-05T14:29:15.380Z,26.09
2023-05-05T14:31:43.059Z,26.38
2023-05-05T14:34:11.030Z,25.56
2023-05-05T14:36:38.580Z,25.80
2023-05-05T14:39:06.330Z,26.53
2023-05-05T14:41:34.189Z,25.42
2023-05-05T14:44:01.690Z,26.31
2023-05-05T14:46:30.011Z,26.96
2023-05-05T14:48:58.817Z,27.49
2023-05-05T14:51:26.614Z,27.68
2023-05-05T14:53:54.398Z,28.01
2023-05-05T14:56:22.770Z,27.98
2023-05-05T14:58:50.759Z,27.98
2023-05-05T15:01:20.622Z,27.92
2023-05-05T15:03:48.787Z,27.74
2023-05-05T15:06:16.560Z,27.80
2023-05-05T15:08:44.067Z,27.30
2023-05-05T15:11:11.887Z,26.58
2023-05-05T15:13:41.374Z,26.63
2023-05-05T15:16:08.906Z,26.15
2023-05-05T15:18:36.732Z,26.71
2023-05-05T15:21:05.072Z,26.75
2023-05-05T15:23:32.561Z,26.57
2023-05-05T15:26:00.375Z,26.73
2023-05-05T15:28:27.900Z,26.75
2023-05-05T15:30:55.537Z,26.52
2023-05-05T15:33:23.225Z,26.21
2023-05-05T15:35:50.814Z,26.40
2023-05-05T15:38:18.335Z,26.46
2023-05-05T15:40:48.242Z,26.46
2023-05-05T15:43:17.105Z,25.96
2023-05-05T15:45:44.634Z,25.87
2023-05-05T15:48:12.397Z,25.32
2023-05-05T15:50:40.105Z,23.92
2023-05-05T15:53:07.682Z,24.01
2023-05-05T15:55:35.906Z,24.11
2023-05-05T15:58:04.920Z,24.56
2023-05-05T16:00:38.791Z,24.27
2023-05-05T16:03:20.927Z,23.97
2023-05-05T16:05:53.825Z,24.31
2023-05-05T16:08:32.116Z,24.30
2023-05-05T16:10:59.649Z,24.25
2023-05-05T16:13:27.454Z,24.10
2023-05-05T16:15:55.445Z,23.85
2023-05-05T16:18:22.889Z,23.78
2023-05-05T16:20:50.898Z,23.86
2023-05-05T16:23:18.528Z,23.77
2023-05-05T16:25:45.976Z,23.54
2023-05-05T16:28:13.875Z,23.76
2023-05-05T16:30:43.070Z,23.61
2023-05-05T16:33:10.772Z,23.06
2023-05-05T16:35:38.551Z,22.52
2023-05-05T16:38:06.193Z,22.65
2023-05-05T16:40:37.162Z,22.92
2023-05-05T16:43:09.426Z,23.09
2023-05-05T16:45:41.040Z,23.16
2023-05-05T16:48:09.242Z,22.93
2023-05-05T16:50:36.881Z,22.72
2023-05-05T16:53:04.370Z,22.62
2023-05-05T16:55:32.197Z,22.58
2023-05-05T16:57:59.593Z,22.46
2023-05-05T17:00:27.250Z,22.45
2023-05-05T17:02:55.224Z,22.37
2023-05-05T17:05:22.698Z,22.25
2023-05-05T17:08:00.929Z,22.15
2023-05-05T17:10:28.751Z,22.03
2023-05-05T17:12:56.345Z,21.85
2023-05-05T17:15:23.827Z,21.73
2023-05-05T17:17:53.802Z,21.66
2023-05-05T17:20:21.471Z,21.57
2023-05-05T17:22:49.044Z,21.42
2023-05-05T17:25:16.879Z,21.33
2023-05-05T17:27:44.586Z,21.16
2023-05-05T17:30:12.689Z,21.12
2023-05-05T17:32:40.502Z,21.07
2023-05-05T17:35:08.830Z,20.98
2023-05-05T17:37:37.209Z,20.92
2023-05-05T17:40:05.965Z,20.61
2023-05-05T17:42:33.704Z,20.86
2023-05-05T17:45:01.762Z,20.82
2023-05-05T17:47:30.477Z,20.75
2023-05-05T17:49:58.067Z,20.61
2023-05-05T17:52:26.082Z,20.37
2023-05-05T17:54:53.866Z,20.57
2023-05-05T17:57:21.446Z,20.51
2023-05-05T17:59:53.605Z,20.42
2023-05-05T18:02:21.735Z,20.33
2023-05-05T18:04:49.767Z,20.27
2023-05-05T18:07:17.217Z,20.21
2023-05-05T18:09:45.496Z,20.12
2023-05-05T18:12:13.292Z,20.05
2023-05-05T18:14:40.959Z,19.95
2023-05-05T18:17:08.445Z,19.89
2023-05-05T18:19:36.239Z,19.81
2023-05-05T18:22:04.002Z,19.74
2023-05-05T18:24:31.856Z,19.67
2023-05-05T18:26:59.629Z,19.58
2023-05-05T18:29:28.302Z,19.50
2023-05-05T18:31:56.347Z,19.43
2023-05-05T18:34:24.476Z,19.30
2023-05-05T18:36:54.407Z,19.25
2023-05-05T18:39:21.974Z,19.19
2023-05-05T18:41:50.153Z,19.14
2023-05-05T18:44:18.740Z,19.03
2023-05-05T18:46:49.076Z,18.94
2023-05-05T18:49:17.165Z,18.67
2023-05-05T18:51:44.594Z,18.74
2023-05-05T18:54:12.246Z,18.60
2023-05-05T18:56:40.018Z,18.47
2023-05-05T18:59:07.809Z,18.39
2023-05-05T19:01:35.401Z,18.37
2023-05-05T19:04:03.349Z,18.37
2023-05-05T19:06:31.213Z,18.27
2023-05-05T19:08:58.838Z,18.29
2023-05-05T19:11:26.773Z,18.24
2023-05-05T19:13:54.317Z,18.21
2023-05-05T19:16:22.037Z,18.17
2023-05-05T19:18:49.912Z,18.05
2023-05-05T19:21:17.601Z,18.08
2023-05-05T19:23:45.368Z,17.97
2023-05-05T19:26:14.132Z,17.88
2023-05-05T19:28:41.908Z,17.80
2023-05-05T19:31:09.527Z,17.76
2023-05-05T19:33:37.312Z,17.69
2023-05-05T19:36:04.955Z,17.66
2023-05-05T19:38:32.544Z,17.35
2023-05-05T19:41:00.653Z,17.54
2023-05-05T19:43:28.140Z,17.51
2023-05-05T19:45:55.728Z,17.46
2023-05-05T19:48:23.539Z,17.25
2023-05-05T19:50:51.176Z,17.37
2023-05-05T19:53:18.874Z,17.04
2023-05-05T19:55:46.775Z,17.15
2023-05-05T19:58:14.198Z,16.85
2023-05-05T20:00:42.455Z,16.81
2023-05-05T20:03:11.146Z,16.79
2023-05-05T20:05:38.952Z,16.97
2023-05-05T20:08:06.626Z,16.63
2023-05-05T20:10:34.882Z,16.86
2023-05-05T20:13:02.521Z,16.82
2023-05-05T20:15:31.338Z,16.72
2023-05-05T20:18:00.024Z,16.38
2023-05-05T20:20:28.896Z,16.54
2023-05-05T20:22:56.417Z,16.44
2023-05-05T20:25:24.305Z,16.39
2023-05-05T20:27:51.759Z,16.21
2023-05-05T20:30:19.279Z,16.19
2023-05-05T20:32:47.255Z,16.16
2023-05-05T20:35:14.929Z,16.07
2023-05-05T20:37:42.600Z,16.10
2023-05-05T20:40:11.274Z,15.82
2023-05-05T20:42:39.173Z,16.08
2023-05-05T20:45:07.370Z,16.08
2023-05-05T20:47:35.704Z,16.07
2023-05-05T20:50:03.564Z,15.63
2023-05-05T20:52:31.259Z,15.93
2023-05-05T20:54:59.012Z,15.53
2023-05-05T20:57:26.749Z,15.72
2023-05-05T20:59:54.349Z,15.66
2023-05-05T21:02:22.227Z,15.50
2023-05-05T21:04:49.782Z,15.53
2023-05-05T21:07:17.172Z,15.49
2023-05-05T21:09:47.800Z,15.43
2023-05-05T21:12:15.371Z,15.35
2023-05-05T21:14:44.745Z,15.26
2023-05-05T21:17:12.517Z,15.22
2023-05-05T21:19:40.063Z,15.22
2023-05-05T21:22:07.472Z,15.07
2023-05-05T21:24:35.324Z,15.00
2023-05-05T21:27:02.759Z,15.03
2023-05-05T21:29:37.435Z,15.01
2023-05-05T21:32:06.839Z,14.96
2023-05-05T21:34:34.595Z,14.89
2023-05-05T21:37:02.195Z,14.87
2023-05-05T21:39:32.336Z,14.77
2023-05-05T21:42:00.665Z,14.66
2023-05-05T21:44:28.366Z,14.36
2023-05-05T21:46:56.254Z,14.54
2023-05-05T21:49:23.781Z,14.31
2023-05-05T21:51:51.333Z,14.44
2023-05-05T21:54:19.080Z,14.47
2023-05-05T21:56:46.531Z,14.42
2023-05-05T21:59:15.227Z,14.34
2023-05-05T22:01:43.844Z,13.95
2023-05-05T22:04:11.643Z,14.27
2023-05-05T22:06:39.065Z,14.24
2023-05-05T22:09:06.877Z,13.92
2023-05-05T22:11:34.942Z,13.98
2023-05-05T22:14:02.441Z,13.74
2023-05-05T22:16:29.933Z,14.02
2023-05-05T22:18:57.964Z,14.05
2023-05-05T22:21:27.519Z,14.02
2023-05-05T22:23:55.161Z,13.96
2023-05-05T22:26:22.927Z,13.96
2023-05-05T22:28:50.621Z,13.59
2023-05-05T22:31:18.314Z,13.51
2023-05-05T22:33:46.090Z,13.73
2023-05-05T22:36:14.277Z,13.66
2023-05-05T22:38:42.317Z,13.64
2023-05-05T22:41:10.330Z,13.59
2023-05-05T22:43:37.850Z,13.58
2023-05-05T22:46:05.427Z,13.47
2023-05-05T22:48:33.557Z,13.43
2023-05-05T22:51:01.216Z,13.32
2023-05-05T22:53:29.078Z,13.34
2023-05-05T22:55:58.364Z,13.28
2023-05-05T22:58:26.798Z,13.17
2023-05-05T23:00:54.357Z,13.17
2023-05-05T23:03:22.383Z,13.04
2023-05-05T23:05:49.905Z,12.86
2023-05-05T23:08:17.437Z,13.01
2023-05-05T23:10:45.161Z,13.05
2023-05-05T23:13:13.121Z,13.03
2023-05-05T23:15:41.210Z,13.06
2023-05-05T23:18:09.321Z,13.05
2023-05-05T23:20:36.878Z,13.03
2023-05-05T23:23:04.777Z,13.04
2023-05-05T23:25:32.512Z,12.99
2023-05-05T23:28:00.116Z,12.96
2023-05-05T23:30:27.679Z,12.90
2023-05-05T23:32:57.236Z,12.83
2023-05-05T23:35:24.865Z,12.76
2023-05-05T23:37:52.361Z,12.73
2023-05-05T23:40:20.807Z,12.80
2023-05-05T23:42:48.221Z,12.82
2023-05-05T23:45:18.081Z,12.69
2023-05-05T23:47:46.988Z,12.67
2023-05-05T23:50:14.557Z,12.67
2023-05-05T23:52:42.004Z,12.62
2023-05-05T23:55:10.426Z,12.63
2023-05-05T23:57:38.301Z,12.29
